Time;durP1;ratioP1;P1;durP2;ratioP2;P2;SDS_P1;SDS_P2;PMS_P1;PMS_P2;Temp;Humidity;BMP_temperature;BMP_pressure;BME280_temperature;BME280_humidity;BME280_pressure;Samples;Min_cycle;Max_cycle;Signal;HPM_P1;HPM_P2
2023/01/27 00:00:40;;;;;;;34.58;21.42;;;3.90;99.90;;;;;;5095336;28;20071;-67
2023/01/27 00:03:06;;;;;;;34.38;21.10;;;3.90;99.90;;;;;;5099702;28;20140;-67
2023/01/27 00:05:32;;;;;;;26.92;16.88;;;3.90;99.90;;;;;;5094002;28;20128;-68
2023/01/27 00:07:59;;;;;;;26.30;17.33;;;3.90;99.90;;;;;;5094053;28;20082;-68
2023/01/27 00:10:26;;;;;;;25.10;18.13;;;3.80;99.90;;;;;;5092594;28;20036;-67
2023/01/27 00:15:35;;;;;;;25.20;16.77;;;3.90;99.90;;;;;;5107361;28;20039;-67
2023/01/27 00:18:01;;;;;;;20.48;15.30;;;3.90;99.90;;;;;;5094591;28;20047;-68
2023/01/27 00:26:16;;;;;;;24.45;17.27;;;3.80;99.90;;;;;;5093301;28;20524;-68
2023/01/27 00:28:43;;;;;;;27.80;17.52;;;3.90;99.90;;;;;;5096005;28;20140;-68
2023/01/27 00:34:00;;;;;;;23.63;15.45;;;3.90;99.90;;;;;;5096709;27;20083;-68
2023/01/27 00:36:29;;;;;;;21.88;15.70;;;3.80;99.90;;;;;;5087459;28;20043;-68
2023/01/27 00:38:57;;;;;;;25.40;16.20;;;3.80;99.90;;;;;;5093026;28;20046;-68
2023/01/27 00:41:23;;;;;;;18.57;16.13;;;3.80;99.90;;;;;;5102878;28;20043;-68
2023/01/27 00:43:53;;;;;;;25.58;16.65;;;3.80;99.90;;;;;;5091698;28;20527;-68
2023/01/27 00:46:21;;;;;;;20.58;15.05;;;3.80;99.90;;;;;;5095447;28;20062;-68
2023/01/27 00:48:47;;;;;;;24.67;17.05;;;3.80;99.90;;;;;;5106049;28;20400;-68
2023/01/27 00:51:12;;;;;;;25.40;16.35;;;3.80;99.90;;;;;;5099099;28;20048;-68
2023/01/27 00:53:39;;;;;;;24.77;15.68;;;3.80;99.90;;;;;;5092015;28;20550;-68
2023/01/27 00:56:05;;;;;;;23.45;16.75;;;3.80;99.90;;;;;;5099846;28;20043;-68
2023/01/27 00:58:31;;;;;;;25.58;14.30;;;3.80;99.90;;;;;;5092438;28;20028;-68
2023/01/27 01:00:59;;;;;;;22.83;14.60;;;3.80;99.90;;;;;;5107693;28;20088;-68
2023/01/27 01:03:30;;;;;;;20.55;13.30;;;3.80;99.90;;;;;;5098023;28;20604;-68
2023/01/27 01:05:57;;;;;;;21.10;11.07;;;3.80;99.90;;;;;;5098789;28;20504;-68
2023/01/27 01:08:22;;;;;;;20.90;13.15;;;3.80;99.90;;;;;;5092915;28;20147;-68
2023/01/27 01:10:48;;;;;;;17.00;12.27;;;3.80;99.90;;;;;;5094272;28;20126;-68
2023/01/27 01:13:14;;;;;;;17.17;10.10;;;3.80;99.90;;;;;;5098608;28;20058;-68
2023/01/27 01:15:40;;;;;;;12.75;9.45;;;3.80;99.90;;;;;;5097439;28;20063;-68
2023/01/27 01:18:07;;;;;;;15.25;10.82;;;3.90;99.90;;;;;;5094024;28;20038;-68
2023/01/27 01:20:43;;;;;;;14.43;10.02;;;3.90;99.90;;;;;;5094887;28;20700;-68
2023/01/27 01:23:10;;;;;;;12.40;10.40;;;3.90;99.90;;;;;;5093834;28;20581;-68
2023/01/27 01:25:36;;;;;;;12.35;9.30;;;3.90;99.90;;;;;;5099556;27;20039;-68
2023/01/27 01:28:04;;;;;;;13.63;10.70;;;3.90;99.90;;;;;;5100741;28;20101;-68
2023/01/27 01:30:32;;;;;;;16.85;11.75;;;3.90;99.90;;;;;;5097482;28;20056;-68
2023/01/27 01:32:59;;;;;;;13.57;10.90;;;3.90;99.90;;;;;;5097426;28;20048;-68
2023/01/27 01:35:24;;;;;;;15.00;9.93;;;3.90;99.90;;;;;;5098876;28;20545;-68
2023/01/27 01:37:52;;;;;;;14.77;10.20;;;3.90;99.90;;;;;;5118499;27;20042;-68
2023/01/27 01:40:19;;;;;;;18.05;12.05;;;3.90;99.90;;;;;;5107559;28;20848;-69
2023/01/27 01:43:10;;;;;;;23.70;11.50;;;3.90;99.90;;;;;;5104209;27;20043;-68
2023/01/27 01:45:41;;;;;;;15.63;11.75;;;3.90;99.90;;;;;;5101038;28;20463;-68
2023/01/27 01:48:16;;;;;;;16.30;11.93;;;3.90;99.90;;;;;;5094729;28;20119;-69
2023/01/27 01:50:46;;;;;;;18.83;12.15;;;3.90;99.90;;;;;;5092587;28;20146;-68
2023/01/27 01:53:12;;;;;;;28.73;11.05;;;3.90;99.90;;;;;;5093615;28;20405;-68
2023/01/27 01:55:39;;;;;;;14.15;10.27;;;3.90;99.90;;;;;;5094988;28;20047;-68
2023/01/27 01:58:07;;;;;;;14.52;10.60;;;3.90;99.90;;;;;;5097051;28;20062;-68
2023/01/27 02:00:33;;;;;;;14.77;9.65;;;3.90;99.90;;;;;;5097522;28;20028;-68
2023/01/27 02:03:00;;;;;;;13.68;9.45;;;3.90;99.90;;;;;;5090312;28;20154;-68
2023/01/27 02:05:31;;;;;;;14.73;10.25;;;3.90;99.90;;;;;;5092190;28;20036;-68
2023/01/27 02:08:18;;;;;;;13.85;9.18;;;3.90;99.90;;;;;;5094482;28;20066;-68
2023/01/27 02:10:45;;;;;;;13.32;8.32;;;3.90;99.90;;;;;;5096803;28;20051;-68
2023/01/27 02:13:11;;;;;;;9.50;7.68;;;4.00;99.90;;;;;;5098696;28;20055;-68
2023/01/27 02:15:37;;;;;;;12.75;7.93;;;3.90;99.90;;;;;;5104341;28;20036;-68
2023/01/27 02:18:04;;;;;;;14.23;8.40;;;4.00;99.90;;;;;;5099490;28;20048;-68
2023/01/27 02:20:52;;;;;;;14.10;9.02;;;4.00;99.90;;;;;;5091913;28;20036;-68
2023/01/27 02:23:49;;;;;;;11.45;7.63;;;4.00;99.90;;;;;;5092304;28;20558;-68
2023/01/27 02:26:26;;;;;;;10.93;7.47;;;4.00;99.90;;;;;;5094926;28;20040;-68
2023/01/27 02:29:01;;;;;;;12.87;7.53;;;4.00;99.90;;;;;;5101304;28;20374;-68
2023/01/27 02:31:26;;;;;;;15.98;7.35;;;4.00;99.90;;;;;;5090449;28;20527;-68
2023/01/27 02:33:56;;;;;;;9.50;7.60;;;4.00;99.90;;;;;;5097218;28;20052;-68
2023/01/27 02:36:22;;;;;;;9.82;7.35;;;4.00;99.90;;;;;;5101829;28;20097;-69
2023/01/27 02:38:51;;;;;;;9.57;6.93;;;4.00;99.90;;;;;;5098142;27;20040;-68
2023/01/27 02:41:19;;;;;;;10.80;7.25;;;4.00;99.90;;;;;;5094562;28;20452;-69
2023/01/27 02:43:47;;;;;;;8.90;6.25;;;4.00;99.90;;;;;;5094511;28;20044;-69
2023/01/27 02:46:14;;;;;;;15.80;6.20;;;4.00;99.90;;;;;;5098857;28;20080;-68
2023/01/27 02:48:39;;;;;;;10.18;6.95;;;4.00;99.90;;;;;;5095384;27;20039;-68
2023/01/27 02:51:05;;;;;;;9.48;6.82;;;4.00;99.90;;;;;;5095523;28;20066;-68
2023/01/27 02:53:31;;;;;;;7.85;5.97;;;4.10;99.90;;;;;;5094454;28;20044;-68
2023/01/27 02:55:56;;;;;;;7.20;5.75;;;4.10;99.90;;;;;;5093069;28;20461;-68
2023/01/27 02:58:22;;;;;;;4.90;4.40;;;4.10;99.90;;;;;;5088767;28;20036;-68
2023/01/27 03:00:48;;;;;;;6.15;5.45;;;4.20;99.90;;;;;;5094875;28;20080;-68
2023/01/27 03:03:13;;;;;;;6.63;5.85;;;4.20;99.90;;;;;;5093712;28;20043;-68
2023/01/27 03:05:39;;;;;;;6.38;5.32;;;4.20;99.90;;;;;;5102537;27;20035;-68
2023/01/27 03:08:05;;;;;;;9.55;5.25;;;4.20;99.90;;;;;;5088208;28;20039;-68
2023/01/27 03:10:31;;;;;;;7.35;5.78;;;4.20;99.90;;;;;;5095553;28;20040;-69
2023/01/27 03:12:56;;;;;;;9.05;4.70;;;4.10;99.90;;;;;;5090152;28;20427;-68
2023/01/27 03:18:10;;;;;;;6.53;5.25;;;4.20;99.90;;;;;;5095537;28;20047;-68
2023/01/27 03:20:35;;;;;;;5.82;5.32;;;4.20;99.90;;;;;;5103046;28;20092;-68
2023/01/27 03:23:01;;;;;;;8.10;6.22;;;4.20;99.90;;;;;;5101403;28;20430;-68
2023/01/27 03:25:27;;;;;;;6.60;5.18;;;4.20;99.90;;;;;;5108599;28;20621;-68
2023/01/27 03:27:53;;;;;;;7.22;6.20;;;4.20;99.90;;;;;;5105796;28;20044;-68
2023/01/27 03:30:18;;;;;;;7.72;5.93;;;4.20;99.90;;;;;;5098960;28;20100;-68
2023/01/27 03:32:47;;;;;;;7.05;6.07;;;4.20;99.90;;;;;;5088117;28;20054;-68
2023/01/27 03:35:13;;;;;;;;;;;4.20;99.90;;;;;;5096921;28;20116;-68
2023/01/27 03:48:39;;;;;;;8.18;6.18;;;4.10;99.90;;;;;;5092278;28;20052;-68
2023/01/27 03:51:07;;;;;;;9.68;6.78;;;4.10;99.90;;;;;;5103563;28;20046;-68
2023/01/27 03:53:34;;;;;;;12.02;7.00;;;4.10;99.90;;;;;;5102188;28;20055;-68
2023/01/27 03:56:01;;;;;;;7.47;6.18;;;4.10;99.90;;;;;;5091015;28;20108;-68
2023/01/27 03:58:29;;;;;;;7.80;7.10;;;4.10;99.90;;;;;;5095007;28;20500;-68
2023/01/27 04:01:00;;;;;;;7.57;6.32;;;4.00;99.90;;;;;;5094950;28;20044;-68
2023/01/27 04:09:00;;;;;;;8.23;5.82;;;4.00;99.90;;;;;;5092935;28;20421;-68
2023/01/27 04:14:11;;;;;;;7.05;5.30;;;4.00;99.90;;;;;;5100768;28;20059;-68
2023/01/27 04:16:37;;;;;;;8.02;4.60;;;4.00;99.90;;;;;;5094829;28;20052;-68
2023/01/27 04:19:06;;;;;;;10.45;4.30;;;4.00;99.90;;;;;;5085890;28;20051;-68
2023/01/27 04:21:32;;;;;;;4.95;4.38;;;4.00;99.90;;;;;;5087695;28;20036;-68
2023/01/27 04:23:58;;;;;;;4.70;3.90;;;3.90;99.90;;;;;;5100782;28;20149;-67
2023/01/27 04:26:25;;;;;;;5.60;4.60;;;4.00;99.90;;;;;;5090633;28;20125;-68
2023/01/27 04:28:51;;;;;;;5.45;3.75;;;4.00;99.90;;;;;;5095693;28;20105;-68
2023/01/27 04:31:17;;;;;;;10.10;5.35;;;3.90;99.90;;;;;;5100669;28;20468;-68
2023/01/27 04:33:43;;;;;;;7.63;4.78;;;3.90;99.90;;;;;;5095611;28;20050;-68
2023/01/27 04:36:14;;;;;;;7.35;4.63;;;3.90;99.90;;;;;;5096667;28;20527;-68
2023/01/27 04:38:40;;;;;;;5.13;4.30;;;3.90;99.90;;;;;;5089296;28;20769;-68
2023/01/27 04:41:05;;;;;;;4.55;4.05;;;3.90;99.90;;;;;;5101612;28;20051;-68
2023/01/27 04:43:31;;;;;;;6.78;4.65;;;3.90;99.90;;;;;;5094622;28;20040;-68
2023/01/27 04:45:56;;;;;;;8.52;5.55;;;3.90;99.90;;;;;;5094055;28;20876;-68
2023/01/27 04:48:22;;;;;;;7.25;4.40;;;3.80;99.90;;;;;;5107129;28;20441;-68
2023/01/27 04:50:48;;;;;;;6.47;4.47;;;3.80;99.90;;;;;;5087148;28;20044;-68
2023/01/27 04:53:13;;;;;;;6.38;4.70;;;3.90;99.90;;;;;;5086549;28;20040;-68
2023/01/27 04:55:42;;;;;;;8.77;4.50;;;3.80;99.90;;;;;;5100929;28;20036;-68
2023/01/27 04:58:11;;;;;;;14.57;5.00;;;3.80;99.90;;;;;;5100718;28;20032;-68
2023/01/27 05:00:37;;;;;;;7.82;5.63;;;3.80;99.90;;;;;;5098564;28;20090;-68
2023/01/27 05:03:04;;;;;;;9.43;4.90;;;3.80;99.90;;;;;;5072865;28;20083;-69
2023/01/27 05:05:33;;;;;;;6.63;4.57;;;3.80;99.90;;;;;;5092552;28;20039;-68
2023/01/27 05:08:06;;;;;;;7.43;4.88;;;3.80;99.90;;;;;;5110983;28;20071;-68
2023/01/27 05:10:32;;;;;;;6.60;5.07;;;3.80;99.90;;;;;;5096630;28;20051;-68
2023/01/27 05:13:01;;;;;;;7.15;5.45;;;3.80;99.90;;;;;;5087872;28;20044;-68
2023/01/27 05:15:34;;;;;;;9.80;5.65;;;3.80;99.90;;;;;;5086928;28;20047;-68
2023/01/27 05:17:59;;;;;;;7.80;4.82;;;3.80;99.90;;;;;;5096395;28;20489;-68
2023/01/27 05:20:27;;;;;;;24.48;5.22;;;3.80;99.90;;;;;;5106854;28;20035;-68
2023/01/27 05:23:34;;;;;;;8.87;5.70;;;3.80;99.90;;;;;;5098532;28;20044;-68
2023/01/27 05:25:42;;;;;;;9.57;2.65;;;3.80;99.90;;;;;;5091757;28;20397;-68
2023/01/27 05:28:07;;;;;;;6.10;4.75;;;3.80;99.90;;;;;;5098145;28;20044;-68
2023/01/27 05:30:33;;;;;;;9.40;4.88;;;3.80;99.90;;;;;;5091681;28;20047;-68
2023/01/27 05:32:59;;;;;;;7.47;5.25;;;3.80;99.90;;;;;;5102183;28;20068;-68
2023/01/27 05:35:24;;;;;;;7.68;5.05;;;3.80;99.90;;;;;;5094187;28;20055;-68
2023/01/27 05:37:50;;;;;;;10.45;6.13;;;3.80;99.90;;;;;;5094611;28;20048;-68
2023/01/27 05:40:16;;;;;;;6.30;5.50;;;3.80;99.90;;;;;;5099419;28;20109;-68
2023/01/27 05:42:42;;;;;;;5.93;5.07;;;3.80;99.90;;;;;;5093378;28;20393;-68
2023/01/27 05:45:10;;;;;;;8.10;6.00;;;3.70;99.90;;;;;;5091394;28;20512;-68
2023/01/27 05:47:36;;;;;;;8.40;6.20;;;3.70;99.90;;;;;;5092882;28;20039;-68
2023/01/27 05:50:02;;;;;;;7.43;5.90;;;3.70;99.90;;;;;;5089382;28;20036;-68
2023/01/27 05:52:27;;;;;;;20.45;6.68;;;3.70;99.90;;;;;;5096371;28;20040;-68
2023/01/27 05:54:53;;;;;;;8.35;4.93;;;3.70;99.90;;;;;;5095312;27;20048;-68
2023/01/27 05:57:19;;;;;;;12.18;5.40;;;3.70;99.90;;;;;;5104577;28;20040;-68
2023/01/27 05:59:44;;;;;;;9.60;7.45;;;3.70;99.90;;;;;;5098119;28;20048;-68
2023/01/27 06:02:10;;;;;;;13.13;7.03;;;3.60;99.90;;;;;;5095254;28;20108;-68
2023/01/27 06:04:36;;;;;;;12.07;6.10;;;3.60;99.90;;;;;;5102085;28;20035;-68
2023/01/27 06:07:01;;;;;;;12.85;5.90;;;3.60;99.90;;;;;;5104292;28;20047;-68
2023/01/27 06:09:29;;;;;;;9.95;6.35;;;3.60;99.90;;;;;;5096592;28;20489;-68
2023/01/27 06:11:56;;;;;;;8.87;5.70;;;3.60;99.90;;;;;;5107502;28;20756;-68
2023/01/27 06:14:22;;;;;;;13.95;5.25;;;3.60;99.90;;;;;;5100830;28;20127;-68
2023/01/27 06:16:48;;;;;;;6.20;5.15;;;3.60;99.90;;;;;;5098701;28;20562;-68
2023/01/27 06:19:14;;;;;;;17.02;6.03;;;3.60;99.90;;;;;;5097878;28;20051;-68
2023/01/27 06:21:39;;;;;;;11.13;5.68;;;3.60;99.90;;;;;;5090614;28;20035;-68
2023/01/27 06:24:05;;;;;;;6.00;4.68;;;3.60;99.90;;;;;;5104905;28;20499;-68
2023/01/27 06:26:31;;;;;;;12.55;5.93;;;3.60;99.90;;;;;;5102209;28;20043;-68
2023/01/27 06:28:57;;;;;;;6.90;5.18;;;3.60;99.90;;;;;;5103050;28;20503;-69
2023/01/27 06:31:23;;;;;;;6.00;5.13;;;3.60;99.90;;;;;;5099632;28;20047;-67
2023/01/27 06:33:50;;;;;;;6.75;5.45;;;3.60;99.90;;;;;;5100119;27;20052;-68
2023/01/27 06:36:18;;;;;;;11.23;6.05;;;3.60;99.90;;;;;;5104363;28;20047;-69
2023/01/27 06:38:44;;;;;;;7.30;5.32;;;3.50;99.90;;;;;;5093034;28;20035;-68
2023/01/27 06:41:10;;;;;;;10.48;6.50;;;3.50;99.90;;;;;;5091188;28;20039;-68
2023/01/27 06:43:37;;;;;;;8.15;6.10;;;3.50;99.90;;;;;;5098186;28;20055;-68
2023/01/27 06:46:03;;;;;;;11.18;5.50;;;3.50;99.90;;;;;;5089983;28;20048;-68
2023/01/27 06:48:29;;;;;;;13.23;5.68;;;3.50;99.90;;;;;;5103004;28;20530;-68
2023/01/27 06:50:55;;;;;;;15.52;6.45;;;3.50;99.90;;;;;;5088889;28;20179;-68
2023/01/27 06:53:22;;;;;;;9.60;6.82;;;3.50;99.90;;;;;;5089672;28;20047;-68
2023/01/27 06:55:48;;;;;;;15.05;5.60;;;3.50;99.90;;;;;;5096012;28;20047;-68
2023/01/27 06:58:14;;;;;;;10.90;5.78;;;3.50;99.90;;;;;;5107469;28;20036;-68
2023/01/27 07:00:41;;;;;;;8.82;5.63;;;3.50;99.90;;;;;;5095779;28;20044;-68
2023/01/27 07:03:10;;;;;;;11.45;5.68;;;3.50;99.90;;;;;;5094962;28;20124;-68
2023/01/27 07:05:38;;;;;;;8.27;5.72;;;3.50;99.90;;;;;;5099538;28;20097;-69
2023/01/27 07:08:04;;;;;;;9.57;6.47;;;3.50;99.90;;;;;;5088351;28;20047;-69
2023/01/27 07:10:30;;;;;;;7.32;5.45;;;3.50;99.90;;;;;;5097084;28;20039;-68
2023/01/27 07:13:10;;;;;;;8.15;5.78;;;3.50;99.90;;;;;;5088211;28;20040;-69
2023/01/27 07:15:36;;;;;;;8.32;6.20;;;3.50;99.90;;;;;;5103860;28;20058;-68
2023/01/27 07:18:02;;;;;;;7.07;5.90;;;3.50;99.90;;;;;;5090265;28;20044;-69
2023/01/27 07:20:28;;;;;;;12.75;6.75;;;3.50;99.90;;;;;;5092202;28;20043;-68
2023/01/27 07:23:02;;;;;;;13.15;5.97;;;3.50;99.90;;;;;;5100518;28;20043;-69
2023/01/27 07:25:29;;;;;;;10.48;6.50;;;3.50;99.90;;;;;;5105080;28;20101;-69
2023/01/27 07:27:59;;;;;;;10.10;6.72;;;3.50;99.90;;;;;;5095769;28;20142;-69
2023/01/27 07:30:26;;;;;;;2.78;2.28;;;3.50;99.90;;;;;;5089007;28;20146;-69
2023/01/27 07:32:54;;;;;;;9.32;6.07;;;3.50;99.90;;;;;;5093396;28;20505;-69
2023/01/27 07:35:20;;;;;;;10.20;6.60;;;3.40;99.90;;;;;;5106053;28;20059;-69
2023/01/27 07:37:46;;;;;;;8.38;7.03;;;3.50;99.90;;;;;;5099599;28;20764;-69
2023/01/27 07:40:12;;;;;;;12.45;6.15;;;3.40;99.90;;;;;;5097396;28;20127;-69
2023/01/27 07:42:39;;;;;;;8.88;6.07;;;3.50;99.90;;;;;;5100755;28;20070;-69
2023/01/27 07:45:05;;;;;;;16.05;7.43;;;3.50;99.90;;;;;;5099307;28;20136;-69
2023/01/27 07:47:31;;;;;;;12.82;6.75;;;3.50;99.90;;;;;;5091556;28;20046;-69
2023/01/27 07:49:56;;;;;;;11.85;7.30;;;3.50;99.90;;;;;;5096041;28;20040;-68
2023/01/27 07:52:22;;;;;;;10.65;6.60;;;3.50;99.90;;;;;;5085973;28;20389;-68
2023/01/27 07:54:48;;;;;;;12.38;7.05;;;3.50;99.90;;;;;;5101609;28;20043;-69
2023/01/27 07:57:14;;;;;;;8.55;6.13;;;3.50;99.90;;;;;;5093417;28;20154;-69
2023/01/27 07:59:39;;;;;;;10.38;6.82;;;3.50;99.90;;;;;;5107057;28;20043;-68
2023/01/27 08:02:05;;;;;;;16.23;8.50;;;3.50;99.90;;;;;;5096664;28;20126;-69
2023/01/27 08:04:31;;;;;;;13.52;7.18;;;3.50;99.90;;;;;;5099210;28;20485;-68
2023/01/27 08:06:56;;;;;;;11.57;6.68;;;3.50;99.90;;;;;;5099663;28;20027;-69
2023/01/27 08:09:22;;;;;;;8.73;6.03;;;3.50;99.90;;;;;;5093914;28;20085;-69
2023/01/27 08:11:48;;;;;;;8.52;7.13;;;3.50;99.90;;;;;;5104155;28;20051;-69
2023/01/27 08:14:13;;;;;;;14.00;7.05;;;3.50;99.90;;;;;;5101619;28;20150;-69
2023/01/27 08:16:39;;;;;;;12.10;6.38;;;3.50;99.90;;;;;;5098162;28;20507;-69
2023/01/27 08:19:05;;;;;;;9.38;5.93;;;3.50;99.90;;;;;;5096312;28;20071;-69
2023/01/27 08:21:31;;;;;;;10.07;7.25;;;3.50;99.90;;;;;;5086939;28;20043;-69
2023/01/27 08:24:02;;;;;;;14.38;8.90;;;3.50;99.90;;;;;;5101157;28;20043;-69
2023/01/27 08:26:28;;;;;;;9.65;7.07;;;3.50;99.90;;;;;;5105757;28;20039;-68
2023/01/27 08:28:54;;;;;;;19.38;8.02;;;3.60;99.90;;;;;;5107705;28;20150;-69
2023/01/27 08:31:19;;;;;;;11.32;7.50;;;3.60;99.90;;;;;;5089109;28;20072;-69
2023/01/27 08:33:51;;;;;;;11.73;8.10;;;3.60;99.90;;;;;;5087571;28;20052;-69
2023/01/27 08:36:18;;;;;;;19.48;8.55;;;3.60;99.90;;;;;;5104828;28;20408;-69
2023/01/27 08:38:44;;;;;;;11.52;7.88;;;3.60;99.90;;;;;;5091381;28;20050;-69
2023/01/27 08:41:15;;;;;;;10.35;8.10;;;3.60;99.90;;;;;;5098086;28;20039;-69
2023/01/27 08:43:42;;;;;;;14.15;9.65;;;3.60;99.90;;;;;;5094696;28;20508;-69
2023/01/27 08:46:08;;;;;;;13.45;8.57;;;3.60;99.90;;;;;;5099977;28;20139;-69
2023/01/27 08:48:35;;;;;;;11.10;8.38;;;3.60;99.90;;;;;;5103160;28;20043;-69
2023/01/27 08:51:02;;;;;;;11.45;9.15;;;3.60;99.90;;;;;;5105783;28;20047;-69
2023/01/27 08:53:29;;;;;;;11.77;9.52;;;3.70;99.90;;;;;;5091481;28;20065;-69
2023/01/27 08:56:01;;;;;;;16.35;9.60;;;3.70;99.90;;;;;;5086296;28;20733;-69
2023/01/27 08:58:27;;;;;;;29.40;10.38;;;3.80;99.90;;;;;;5102549;28;20052;-69
2023/01/27 09:00:53;;;;;;;13.10;10.32;;;3.80;99.90;;;;;;5101657;28;20042;-69
2023/01/27 09:03:18;;;;;;;12.95;8.88;;;3.80;99.90;;;;;;5097006;28;20040;-69
2023/01/27 09:05:46;;;;;;;12.40;8.70;;;3.80;99.90;;;;;;5096102;28;20040;-69
2023/01/27 09:08:12;;;;;;;11.85;8.85;;;3.80;99.90;;;;;;5092372;28;20038;-69
2023/01/27 09:10:39;;;;;;;12.98;9.18;;;3.80;99.90;;;;;;5096170;28;20409;-69
2023/01/27 09:13:06;;;;;;;14.13;10.73;;;3.80;99.90;;;;;;5094875;28;20404;-69
2023/01/27 09:15:32;;;;;;;18.70;8.35;;;3.80;99.90;;;;;;5100416;28;20039;-69
2023/01/27 09:17:58;;;;;;;15.25;9.20;;;3.80;99.90;;;;;;5099053;28;20046;-69
2023/01/27 09:20:24;;;;;;;13.35;9.63;;;3.90;99.90;;;;;;5106988;28;20404;-68
2023/01/27 09:22:49;;;;;;;17.30;10.10;;;3.90;99.90;;;;;;5097029;28;20097;-68
2023/01/27 09:25:16;;;;;;;12.57;8.15;;;3.90;99.90;;;;;;5095539;28;20480;-69
2023/01/27 09:27:43;;;;;;;13.45;8.85;;;3.90;99.90;;;;;;5099086;28;20035;-68
2023/01/27 09:30:10;;;;;;;22.48;9.38;;;3.90;99.90;;;;;;5096770;28;20098;-68
2023/01/27 09:32:36;;;;;;;12.00;8.57;;;4.00;99.90;;;;;;5108334;28;20847;-68
2023/01/27 09:35:03;;;;;;;10.57;8.50;;;4.00;99.90;;;;;;5105878;27;20134;-69
2023/01/27 09:37:38;;;;;;;9.27;7.63;;;4.00;99.90;;;;;;5097051;28;20059;-69
2023/01/27 09:40:30;;;;;;;8.65;7.65;;;4.00;99.90;;;;;;5104060;28;20124;-69
2023/01/27 09:43:16;;;;;;;18.65;9.15;;;3.90;99.90;;;;;;5099306;28;20865;-68
2023/01/27 09:46:06;;;;;;;12.45;7.70;;;4.00;99.90;;;;;;5100107;28;20055;-68
2023/01/27 09:48:56;;;;;;;11.20;7.45;;;4.00;99.90;;;;;;5103760;28;20047;-68
2023/01/27 09:51:43;;;;;;;11.77;7.90;;;4.00;99.90;;;;;;5107253;28;20040;-68
2023/01/27 09:54:40;;;;;;;11.30;7.30;;;4.00;99.90;;;;;;5103533;28;20040;-68
2023/01/27 09:57:24;;;;;;;10.93;6.80;;;4.00;99.90;;;;;;5106419;28;20119;-68
2023/01/27 10:00:01;;;;;;;15.02;7.90;;;4.00;99.90;;;;;;5098359;28;20118;-68
2023/01/27 10:02:46;;;;;;;8.43;6.43;;;4.00;99.90;;;;;;5103686;28;20044;-68
2023/01/27 10:05:23;;;;;;;7.45;5.82;;;4.00;99.90;;;;;;5100879;28;20051;-68
2023/01/27 10:08:28;;;;;;;10.05;5.43;;;4.00;99.90;;;;;;5100015;28;20046;-68
2023/01/27 10:11:21;;;;;;;7.78;6.30;;;4.00;99.90;;;;;;5095958;28;20048;-68
2023/01/27 10:14:32;;;;;;;7.10;5.45;;;4.00;99.90;;;;;;5101656;28;20036;-68
2023/01/27 10:17:20;;;;;;;7.35;5.53;;;4.00;99.90;;;;;;5081535;28;20052;-68
2023/01/27 10:19:51;;;;;;;7.40;5.38;;;4.00;99.90;;;;;;5102980;28;20039;-68
2023/01/27 10:22:47;;;;;;;8.32;5.63;;;3.90;99.90;;;;;;5099933;28;20213;-69
2023/01/27 10:25:24;;;;;;;7.32;5.50;;;4.00;99.90;;;;;;5093100;28;20062;-68
2023/01/27 10:27:57;;;;;;;7.33;5.57;;;3.90;99.90;;;;;;5103845;28;20100;-69
2023/01/27 10:30:35;;;;;;;9.45;5.18;;;3.90;99.90;;;;;;5102913;28;20912;-69
2023/01/27 10:33:17;;;;;;;11.90;6.65;;;4.00;99.90;;;;;;5092824;28;20070;-68
2023/01/27 10:35:51;;;;;;;9.70;5.38;;;3.90;99.90;;;;;;5090182;28;20087;-69
2023/01/27 10:38:45;;;;;;;9.07;5.35;;;3.90;99.90;;;;;;5090888;28;20051;-69
2023/01/27 10:41:26;;;;;;;6.32;5.32;;;4.00;99.90;;;;;;5096363;28;20093;-68
2023/01/27 10:44:02;;;;;;;8.93;5.78;;;4.00;99.90;;;;;;5096535;28;20047;-69
2023/01/27 10:46:47;;;;;;;11.13;5.95;;;3.90;99.90;;;;;;5096389;28;20484;-68
2023/01/27 10:49:24;;;;;;;8.60;5.22;;;3.90;99.90;;;;;;5093055;28;20102;-69
2023/01/27 10:52:14;;;;;;;6.43;5.10;;;3.90;99.90;;;;;;5103945;28;20129;-69
2023/01/27 10:55:04;;;;;;;11.10;6.53;;;3.90;99.90;;;;;;5100868;28;20055;-69
2023/01/27 10:57:40;;;;;;;7.15;5.15;;;3.90;99.90;;;;;;5106708;28;20522;-69
2023/01/27 11:00:12;;;;;;;3.08;2.72;;;3.90;99.90;;;;;;5106155;28;20051;-69
2023/01/27 11:02:55;;;;;;;4.93;4.43;;;3.90;99.90;;;;;;5106651;28;20051;-69
2023/01/27 11:05:32;;;;;;;6.20;5.13;;;4.00;99.90;;;;;;5100457;28;20079;-68
2023/01/27 11:08:29;;;;;;;5.43;4.03;;;4.00;99.90;;;;;;5102193;28;20052;-69
2023/01/27 11:13:45;;;;;;;4.38;3.60;;;4.00;99.90;;;;;;5100185;28;20501;-69
2023/01/27 11:16:17;;;;;;;3.03;2.65;;;4.10;99.90;;;;;;5095184;28;20136;-69
2023/01/27 11:18:45;;;;;;;3.10;2.80;;;4.10;99.90;;;;;;5094848;28;20048;-69
2023/01/27 11:21:21;;;;;;;2.83;2.53;;;4.10;99.90;;;;;;5106479;28;20591;-69
2023/01/27 11:23:55;;;;;;;3.60;2.97;;;4.10;99.90;;;;;;5091858;28;20079;-68
2023/01/27 11:26:42;;;;;;;4.78;3.53;;;4.10;99.90;;;;;;5096767;28;20044;-68
2023/01/27 11:29:38;;;;;;;3.58;3.28;;;4.10;99.90;;;;;;5098505;28;20051;-68
2023/01/27 11:32:25;;;;;;;3.78;3.45;;;4.10;99.90;;;;;;5103624;28;20054;-68
2023/01/27 11:35:01;;;;;;;4.95;3.88;;;4.10;99.90;;;;;;5087974;28;20090;-68
2023/01/27 11:37:46;;;;;;;3.45;3.15;;;4.10;99.90;;;;;;5100379;28;20097;-68
2023/01/27 11:40:24;;;;;;;4.00;3.40;;;4.20;99.90;;;;;;5102341;28;20052;-68
2023/01/27 11:42:50;;;;;;;4.63;3.78;;;4.20;99.90;;;;;;5099808;28;20047;-68
2023/01/27 11:45:19;;;;;;;5.25;4.55;;;4.20;99.90;;;;;;5103465;28;20570;-68
2023/01/27 11:47:49;;;;;;;5.45;3.60;;;4.20;99.90;;;;;;5105204;28;20448;-68
2023/01/27 11:50:22;;;;;;;3.78;3.13;;;4.30;99.90;;;;;;5101925;28;20078;-69
2023/01/27 11:52:54;;;;;;;4.10;3.47;;;4.30;99.90;;;;;;5101386;28;20082;-69
2023/01/27 11:55:24;;;;;;;3.47;3.05;;;4.30;99.90;;;;;;5094901;28;20063;-68
2023/01/27 11:58:03;;;;;;;2.95;2.70;;;4.30;99.90;;;;;;5089479;28;20449;-68
2023/01/27 12:00:37;;;;;;;3.70;3.15;;;4.30;99.90;;;;;;5097820;28;20032;-69
2023/01/27 12:03:12;;;;;;;3.22;2.92;;;4.30;99.90;;;;;;5098400;28;20042;-69
2023/01/27 12:05:44;;;;;;;2.85;2.60;;;4.30;99.90;;;;;;5101612;28;20454;-68
2023/01/27 12:08:10;;;;;;;3.17;2.88;;;4.40;99.90;;;;;;5104787;28;20084;-69
2023/01/27 12:10:41;;;;;;;3.17;2.80;;;4.40;99.90;;;;;;5106673;28;20455;-68
2023/01/27 12:13:19;;;;;;;3.95;2.90;;;4.40;99.90;;;;;;5103241;28;20075;-69
2023/01/27 12:16:04;;;;;;;3.35;2.65;;;4.40;99.90;;;;;;5088312;28;20044;-69
2023/01/27 12:18:45;;;;;;;3.15;2.70;;;4.40;99.90;;;;;;5093824;28;20450;-68
2023/01/27 12:21:12;;;;;;;3.83;3.22;;;4.40;99.90;;;;;;5098299;28;20555;-69
2023/01/27 12:23:54;;;;;;;5.53;3.78;;;4.30;99.90;;;;;;5093493;28;20085;-68
2023/01/27 12:26:46;;;;;;;6.68;4.20;;;4.40;99.90;;;;;;5094185;28;20051;-68
2023/01/27 12:29:30;;;;;;;3.75;3.08;;;4.40;99.90;;;;;;5089559;28;20056;-68
2023/01/27 12:31:58;;;;;;;5.35;3.90;;;4.40;99.90;;;;;;5088634;28;20134;-69
2023/01/27 12:34:33;;;;;;;4.13;3.50;;;4.40;99.90;;;;;;5102834;28;20055;-68
2023/01/27 12:37:00;;;;;;;3.65;3.35;;;4.40;99.90;;;;;;5101784;28;20044;-68
2023/01/27 12:39:38;;;;;;;3.85;3.03;;;4.30;99.90;;;;;;5104927;28;20058;-68
2023/01/27 12:42:03;;;;;;;8.73;8.02;;;4.30;99.90;;;;;;5089993;28;20028;-71
2023/01/27 12:44:43;;;;;;;6.15;4.30;;;4.30;99.90;;;;;;5096924;28;20040;-70
2023/01/27 12:47:24;;;;;;;4.07;3.67;;;4.40;99.90;;;;;;5101527;28;20819;-68
2023/01/27 12:50:18;;;;;;;3.90;3.40;;;4.30;99.90;;;;;;5085542;28;20143;-70
2023/01/27 12:52:51;;;;;;;5.45;4.13;;;4.40;99.90;;;;;;5093904;28;20115;-70
2023/01/27 12:55:33;;;;;;;4.15;3.75;;;4.30;99.90;;;;;;5098657;28;20048;-67
2023/01/27 12:58:02;;;;;;;2.92;2.72;;;4.30;99.90;;;;;;5086101;28;20043;-67
2023/01/27 13:00:28;;;;;;;3.55;3.25;;;4.30;99.90;;;;;;5104225;28;20051;-67
2023/01/27 13:03:04;;;;;;;3.42;3.00;;;4.30;99.90;;;;;;5098651;28;20488;-67
2023/01/27 13:05:36;;;;;;;3.72;3.42;;;4.30;99.90;;;;;;5088132;28;20047;-67
2023/01/27 13:08:02;;;;;;;4.03;3.53;;;4.30;99.90;;;;;;5105395;28;20172;-67
2023/01/27 13:10:28;;;;;;;3.53;3.22;;;4.30;99.90;;;;;;5101049;28;20833;-67
2023/01/27 13:12:57;;;;;;;3.13;2.85;;;4.30;99.90;;;;;;5108082;28;20050;-67
2023/01/27 13:15:26;;;;;;;4.45;3.25;;;4.30;99.90;;;;;;5099748;28;20069;-67
2023/01/27 13:17:54;;;;;;;3.53;3.22;;;4.30;99.90;;;;;;5092757;28;20557;-67
2023/01/27 13:20:42;;;;;;;3.83;3.53;;;4.30;99.90;;;;;;5099855;28;20492;-67
2023/01/27 13:23:25;;;;;;;4.00;3.60;;;4.30;99.90;;;;;;5102984;28;20177;-67
2023/01/27 13:26:05;;;;;;;3.63;3.38;;;4.30;99.90;;;;;;5097068;28;20561;-67
2023/01/27 13:28:54;;;;;;;2.92;2.67;;;4.30;99.90;;;;;;5103213;28;20043;-67
2023/01/27 13:31:26;;;;;;;4.10;3.70;;;4.30;99.90;;;;;;5096817;28;20227;-67
2023/01/27 13:34:05;;;;;;;4.93;4.38;;;4.30;99.90;;;;;;5098270;28;20048;-67
2023/01/27 13:36:39;;;;;;;;;;;4.20;99.90;;;;;;5093372;28;20036;-67
2023/01/27 13:39:11;;;;;;;3.53;3.22;;;4.20;99.90;;;;;;5084925;28;19919;-67
2023/01/27 13:41:51;;;;;;;6.57;4.53;;;4.20;99.90;;;;;;5088016;28;20047;-67
2023/01/27 13:44:28;;;;;;;3.25;2.95;;;4.20;99.90;;;;;;5100013;28;20066;-67